Flight Track Log - Related Links

Times and Time Zones

All times are in EST time to prevent confusion due to time zone crossing. See the N10NM flight status page for this flight to view local times or setup timezone preferences in your user account.

Time Position Orientation Groundspeed Altitude Reporting Facility
EST Latitude Longitude Course Direction KTS MPH feet Rate Location/Type
Sat 10:15:56 AM 45.6369 -93.6617 335° Northwest 81 93 4,100  Level Minneapolis Center
Sat 10:16:58 AM 45.6686 -93.6806 337° Northwest 104 120 4,000 -49 Descending Minneapolis Center
Sat 10:17:59 AM 45.6967 -93.6989 335° Northwest 109 125 4,000  Level Minneapolis Center
Sat 10:19:01 AM 45.7239 -93.7136 339° North 107 123 4,000 49 Level Minneapolis Center
Sat 10:20:00 AM 45.6930 -93.6853 335° Northwest  Level FlightAware Approximate
Sat 10:20:02 AM 45.7492 -93.7358 328° Northwest 107 123 4,100  Level Minneapolis Center
Sat 10:21:00 AM 45.7163 -93.7012 335° Northwest  Level FlightAware Approximate
Sat 10:21:03 AM 45.7756 -93.7539 334° Northwest 107 123 4,100  Level Minneapolis Center
Sat 10:22:05 AM 45.8006 -93.7775 327° Northwest 107 123 4,100  Level Minneapolis Center
Sat 10:23:07 AM 45.8275 -93.7944 336° Northwest 107 123 4,100  Level Minneapolis Center
Sat 10:24:08 AM 45.8544 -93.8106 337° Northwest 107 123 4,100  Level Minneapolis Center
Sat 10:25:10 AM 45.8847 -93.8333 332° Northwest 107 123 4,100  Level Minneapolis Center
Sat 10:26:11 AM 45.9097 -93.8542 330° Northwest 107 123 4,100  Level Minneapolis Center
Sat 10:27:13 AM 45.9353 -93.8742 331° Northwest 107 123 4,100  Level Minneapolis Center
Sat 10:28:14 AM 45.9617 -93.8931 334° Northwest 106 122 4,100  Level Minneapolis Center
Sat 10:29:16 AM 45.9869 -93.9114 333° Northwest 106 122 4,100  Level Minneapolis Center
Sat 10:30:17 AM 46.0114 -93.9275 335° Northwest 106 122 4,100  Level Minneapolis Center
Sat 10:32:00 AM 46.0609 -93.9559 338° Northwest  Level FlightAware Approximate
Sat 10:39:00 AM 46.2645 -94.0656 341° North  Level FlightAware Approximate
Sat 10:40:00 AM 46.2938 -94.0802 341° North  Level FlightAware Approximate
Sat 10:41:00 AM 46.3232 -94.0949 341° North  Level FlightAware Approximate
Sat 10:42:00 AM 46.3525 -94.1096 341° North  Level FlightAware Approximate
Sat 10:43:00 AM 46.3818 -94.1243 341° North  Level FlightAware Approximate
Sat 10:44:00 AM 46.4000 -94.1333 341° North  Level FlightAware Approximate
Sat 10:45:00 AM 46.4042 -94.1338 341° North  Level Estimated
Sat 10:46:00 AM 46.4000 -94.1333 341° North  Level FlightAware Approximate
Sat 10:47:00 AM 46.4042 -94.1338 341° North  Level Estimated
Sat 10:48:00 AM 46.4000 -94.1333 341° North  Level FlightAware Approximate
Sat 10:49:00 AM 46.4042 -94.1338 341° North  Level Estimated
Sat 10:50:00 AM 46.4000 -94.1333 341° North  Level FlightAware Approximate
Sat 10:51:00 AM 46.4042 -94.1338 341° North  Level Estimated
Sat 10:52:00 AM 46.4000 -94.1333 341° North  Level FlightAware Approximate
Sat 10:53:00 AM 46.4042 -94.1338 341° North  Level Estimated

Login

Don't have an account? Register now (free) for customized features, flight alerts, and more!